createdAt,value
2022-08-04T00:00:23.106Z,99.90
2022-08-04T00:02:31.674Z,99.90
2022-08-04T00:04:49.475Z,99.90
2022-08-04T00:06:54.033Z,99.90
2022-08-04T00:09:07.120Z,99.90
2022-08-04T00:11:12.005Z,99.90
2022-08-04T00:13:29.863Z,99.90
2022-08-04T00:15:35.184Z,99.90
2022-08-04T00:17:44.576Z,99.90
2022-08-04T00:19:48.990Z,99.90
2022-08-04T00:22:02.833Z,99.90
2022-08-04T00:24:11.344Z,99.90
2022-08-04T00:26:16.861Z,99.90
2022-08-04T00:28:19.301Z,99.90
2022-08-04T00:30:21.471Z,99.90
2022-08-04T00:32:33.678Z,99.90
2022-08-04T00:34:37.532Z,99.90
2022-08-04T00:36:48.216Z,99.90
2022-08-04T00:38:50.797Z,99.90
2022-08-04T00:41:15.089Z,99.90
2022-08-04T00:43:37.675Z,99.90
2022-08-04T00:46:16.247Z,99.90
2022-08-04T00:48:25.869Z,99.90
2022-08-04T00:50:50.340Z,99.90
2022-08-04T00:53:13.248Z,99.90
2022-08-04T00:55:42.940Z,99.90
2022-08-04T00:57:47.707Z,99.90
2022-08-04T01:00:10.463Z,99.90
2022-08-04T01:02:52.709Z,99.90
2022-08-04T01:05:20.370Z,99.90
2022-08-04T01:07:38.047Z,99.90
2022-08-04T01:09:51.533Z,99.90
2022-08-04T01:12:30.201Z,99.90
2022-08-04T01:15:10.765Z,99.90
2022-08-04T01:17:23.189Z,99.90
2022-08-04T01:19:55.652Z,99.90
2022-08-04T01:22:22.978Z,99.90
2022-08-04T01:24:58.114Z,99.90
2022-08-04T01:27:17.645Z,99.90
2022-08-04T01:29:25.167Z,99.90
2022-08-04T01:31:40.983Z,99.90
2022-08-04T01:34:03.446Z,99.90
2022-08-04T01:36:11.832Z,99.90
2022-08-04T01:38:36.508Z,99.90
2022-08-04T01:40:39.353Z,99.90
2022-08-04T01:42:42.466Z,99.90
2022-08-04T01:44:47.897Z,99.90
2022-08-04T01:46:52.856Z,99.90
2022-08-04T01:48:56.416Z,99.90
2022-08-04T01:51:02.943Z,99.90
2022-08-04T01:53:05.022Z,99.90
2022-08-04T01:55:10.169Z,99.90
2022-08-04T01:57:36.869Z,99.90
2022-08-04T01:59:35.916Z,99.90
2022-08-04T02:01:37.727Z,99.90
2022-08-04T02:04:19.482Z,99.90
2022-08-04T02:06:41.000Z,99.90
2022-08-04T02:09:17.382Z,99.90
2022-08-04T02:11:22.821Z,99.90
2022-08-04T02:13:37.029Z,99.90
2022-08-04T02:16:03.583Z,99.90
2022-08-04T02:18:11.151Z,99.90
2022-08-04T02:20:19.207Z,99.90
2022-08-04T02:22:22.355Z,99.90
2022-08-04T02:24:27.772Z,99.90
2022-08-04T02:26:32.367Z,99.90
2022-08-04T02:28:39.909Z,99.90
2022-08-04T02:31:04.967Z,99.90
2022-08-04T02:33:10.039Z,99.90
2022-08-04T02:35:26.873Z,99.90
2022-08-04T02:37:35.056Z,99.90
2022-08-04T02:39:41.464Z,99.90
2022-08-04T02:41:52.815Z,99.90
2022-08-04T02:44:03.417Z,99.90
2022-08-04T02:46:06.160Z,99.90
2022-08-04T02:48:30.997Z,99.90
2022-08-04T02:50:35.805Z,99.90
2022-08-04T02:52:39.586Z,99.90
2022-08-04T02:54:45.596Z,99.90
2022-08-04T02:56:50.895Z,99.90
2022-08-04T02:59:01.627Z,99.90
2022-08-04T03:01:04.949Z,99.90
2022-08-04T03:03:21.302Z,99.90
2022-08-04T03:05:28.035Z,99.90
2022-08-04T03:07:52.184Z,99.90
2022-08-04T03:10:09.142Z,99.90
2022-08-04T03:12:32.149Z,99.90
2022-08-04T03:14:35.000Z,99.90
2022-08-04T03:17:00.997Z,99.90
2022-08-04T03:19:42.850Z,99.90
2022-08-04T03:21:44.520Z,99.90
2022-08-04T03:23:46.235Z,99.90
2022-08-04T03:26:21.906Z,99.90
2022-08-04T03:28:29.635Z,99.90
2022-08-04T03:30:43.413Z,99.90
2022-08-04T03:33:06.029Z,99.90
2022-08-04T03:35:22.891Z,99.90
2022-08-04T03:37:43.844Z,99.90
2022-08-04T03:40:10.795Z,99.90
2022-08-04T03:42:44.508Z,99.90
2022-08-04T03:45:04.936Z,99.90
2022-08-04T03:47:33.289Z,99.90
2022-08-04T03:50:07.240Z,99.90
2022-08-04T03:52:47.314Z,99.90
2022-08-04T03:55:10.747Z,99.90
2022-08-04T03:57:52.173Z,99.90
2022-08-04T04:00:15.598Z,99.90
2022-08-04T04:02:34.669Z,99.90
2022-08-04T04:04:57.132Z,99.90
2022-08-04T04:07:27.873Z,99.90
2022-08-04T04:10:07.022Z,99.90
2022-08-04T04:12:47.764Z,99.90
2022-08-04T04:15:28.003Z,99.90
2022-08-04T04:17:58.814Z,99.90
2022-08-04T04:20:35.654Z,99.90
2022-08-04T04:23:01.486Z,99.90
2022-08-04T04:25:35.987Z,99.90
2022-08-04T04:28:44.557Z,99.90
2022-08-04T04:30:42.635Z,99.90
2022-08-04T04:33:08.749Z,99.90
2022-08-04T04:35:14.872Z,99.90
2022-08-04T04:37:26.275Z,99.90
2022-08-04T04:39:39.942Z,99.90
2022-08-04T04:41:52.289Z,99.90
2022-08-04T04:44:06.316Z,99.90
2022-08-04T04:46:37.021Z,99.90
2022-08-04T04:49:00.895Z,99.90
2022-08-04T04:51:10.705Z,99.90
2022-08-04T04:53:23.316Z,99.90
2022-08-04T04:55:48.408Z,99.90
2022-08-04T04:57:54.790Z,99.90
2022-08-04T05:00:12.838Z,99.90
2022-08-04T05:02:32.335Z,99.90
2022-08-04T05:05:11.029Z,99.90
2022-08-04T05:07:15.818Z,99.90
2022-08-04T05:09:58.027Z,99.90
2022-08-04T05:12:02.909Z,99.90
2022-08-04T05:14:35.736Z,99.90
2022-08-04T05:16:46.766Z,99.90
2022-08-04T05:19:02.068Z,99.90
2022-08-04T05:22:02.038Z,99.90
2022-08-04T05:24:09.138Z,99.90
2022-08-04T05:26:15.697Z,99.90
2022-08-04T05:28:39.479Z,99.90
2022-08-04T05:31:00.307Z,99.90
2022-08-04T05:33:09.643Z,99.90
2022-08-04T05:35:13.604Z,99.90
2022-08-04T05:37:24.009Z,99.90
2022-08-04T05:39:55.945Z,99.90
2022-08-04T05:42:04.458Z,99.90
2022-08-04T05:44:09.089Z,99.90
2022-08-04T05:46:13.868Z,99.90
2022-08-04T05:48:16.550Z,99.90
2022-08-04T05:50:19.704Z,99.90
2022-08-04T05:52:22.810Z,99.90
2022-08-04T05:54:25.602Z,99.90
2022-08-04T05:56:33.394Z,99.90
2022-08-04T05:58:35.804Z,99.90
2022-08-04T06:00:41.631Z,99.90
2022-08-04T06:02:49.355Z,99.90
2022-08-04T06:04:52.350Z,99.90
2022-08-04T06:06:57.072Z,99.90
2022-08-04T06:09:01.588Z,99.90
2022-08-04T06:11:09.573Z,99.90
2022-08-04T06:13:48.823Z,99.90
2022-08-04T06:15:44.379Z,99.90
2022-08-04T06:18:33.524Z,99.90
2022-08-04T06:20:23.934Z,99.90
2022-08-04T06:22:29.054Z,99.90
2022-08-04T06:24:32.969Z,99.90
2022-08-04T06:26:36.564Z,99.90
2022-08-04T06:28:41.951Z,99.90
2022-08-04T06:30:48.225Z,99.90
2022-08-04T06:33:04.164Z,99.90
2022-08-04T06:35:08.219Z,99.90
2022-08-04T06:37:10.561Z,99.90
2022-08-04T06:39:13.376Z,99.90
2022-08-04T06:41:16.262Z,99.90
2022-08-04T06:43:23.093Z,99.90
2022-08-04T06:45:27.778Z,99.90
2022-08-04T06:47:31.434Z,99.90
2022-08-04T06:49:55.215Z,99.90
2022-08-04T06:51:58.235Z,99.90
2022-08-04T06:54:00.317Z,99.90
2022-08-04T06:56:04.358Z,99.90
2022-08-04T06:58:10.071Z,99.90
2022-08-04T07:00:14.347Z,99.90
2022-08-04T07:02:20.705Z,99.90
2022-08-04T07:04:22.699Z,99.90
2022-08-04T07:06:25.536Z,99.90
2022-08-04T07:08:27.995Z,99.90
2022-08-04T07:10:30.576Z,99.90
2022-08-04T07:12:33.549Z,99.90
2022-08-04T07:14:36.454Z,99.90
2022-08-04T07:16:43.492Z,99.90
2022-08-04T07:18:45.465Z,99.90
2022-08-04T07:20:47.241Z,99.90
2022-08-04T07:22:50.290Z,99.90
2022-08-04T07:24:56.109Z,99.90
2022-08-04T07:26:59.231Z,99.90
2022-08-04T07:29:01.320Z,99.90
2022-08-04T07:31:05.271Z,99.90
2022-08-04T07:33:07.971Z,99.90
2022-08-04T07:36:03.765Z,99.90
2022-08-04T07:37:39.341Z,99.90
2022-08-04T07:39:47.675Z,99.90
2022-08-04T07:41:51.577Z,99.90
2022-08-04T07:43:54.912Z,99.90
2022-08-04T07:45:58.852Z,99.90
2022-08-04T07:48:05.023Z,99.90
2022-08-04T07:50:12.401Z,99.90
2022-08-04T07:52:15.428Z,99.90
2022-08-04T07:54:18.325Z,99.90
2022-08-04T07:56:20.191Z,99.90
2022-08-04T07:58:28.450Z,99.90
2022-08-04T08:00:32.456Z,99.90
2022-08-04T08:02:35.638Z,99.90
2022-08-04T08:04:37.797Z,99.90
2022-08-04T08:06:43.133Z,99.90
2022-08-04T08:08:45.353Z,99.90
2022-08-04T08:10:51.344Z,99.90
2022-08-04T08:12:53.742Z,99.90
2022-08-04T08:14:58.776Z,99.90
2022-08-04T08:17:02.745Z,99.90
2022-08-04T08:19:05.715Z,99.90
2022-08-04T08:21:11.292Z,99.90
2022-08-04T08:23:15.874Z,99.90
2022-08-04T08:25:21.156Z,99.90
2022-08-04T08:27:23.808Z,99.90
2022-08-04T08:29:26.881Z,99.90
2022-08-04T08:31:56.486Z,99.90
2022-08-04T08:33:52.289Z,99.90
2022-08-04T08:36:03.380Z,99.90
2022-08-04T08:38:06.769Z,99.90
2022-08-04T08:40:18.248Z,99.90
2022-08-04T08:42:44.762Z,99.90
2022-08-04T08:45:30.719Z,99.90
2022-08-04T08:48:20.654Z,99.90
2022-08-04T08:50:40.589Z,99.90
2022-08-04T08:53:19.803Z,99.90
2022-08-04T08:55:58.960Z,99.90
2022-08-04T08:58:00.881Z,99.90
2022-08-04T09:00:16.590Z,99.90
2022-08-04T09:02:32.958Z,99.90
2022-08-04T09:04:53.283Z,99.90
2022-08-04T09:07:48.339Z,99.90
2022-08-04T09:12:59.394Z,99.90
2022-08-04T09:15:08.462Z,99.90
2022-08-04T09:17:27.225Z,99.90
2022-08-04T09:19:42.239Z,99.90
2022-08-04T09:21:58.066Z,99.90
2022-08-04T09:24:35.708Z,99.90
2022-08-04T09:26:59.748Z,99.90
2022-08-04T09:29:21.899Z,99.90
2022-08-04T09:31:51.421Z,99.90
2022-08-04T09:34:26.773Z,99.90
2022-08-04T09:36:51.097Z,99.90
2022-08-04T09:39:04.759Z,99.90
2022-08-04T09:41:49.026Z,99.90
2022-08-04T09:44:50.725Z,99.90
2022-08-04T09:46:53.933Z,99.90
2022-08-04T09:49:04.926Z,99.90
2022-08-04T09:51:58.087Z,99.90
2022-08-04T09:54:31.234Z,99.90
2022-08-04T09:56:42.697Z,99.90
2022-08-04T09:59:03.314Z,99.90
2022-08-04T10:01:23.379Z,99.90
2022-08-04T10:03:31.579Z,99.90
2022-08-04T10:05:49.547Z,99.90
2022-08-04T10:08:33.706Z,99.90
2022-08-04T10:11:02.402Z,99.90
2022-08-04T10:13:29.322Z,99.90
2022-08-04T10:15:49.849Z,99.90
2022-08-04T10:18:21.765Z,99.90
2022-08-04T10:20:51.711Z,99.90
2022-08-04T10:23:27.098Z,99.90
2022-08-04T10:26:08.551Z,99.90
2022-08-04T10:28:15.579Z,99.90
2022-08-04T10:30:19.332Z,99.90
2022-08-04T10:32:43.132Z,99.90
2022-08-04T10:35:02.730Z,99.90
2022-08-04T10:37:59.218Z,99.90
2022-08-04T10:40:22.414Z,99.90
2022-08-04T10:42:31.057Z,99.90
2022-08-04T10:44:47.767Z,99.90
2022-08-04T10:47:01.499Z,99.90
2022-08-04T10:49:26.678Z,99.90
2022-08-04T10:51:57.572Z,99.90
2022-08-04T10:54:00.572Z,99.90
2022-08-04T10:56:09.601Z,99.90
2022-08-04T10:58:19.084Z,99.90
2022-08-04T11:00:27.212Z,99.90
2022-08-04T11:02:54.457Z,99.90
2022-08-04T11:05:10.065Z,99.60
2022-08-04T11:07:18.333Z,99.90
2022-08-04T11:09:21.290Z,99.90
2022-08-04T11:12:00.365Z,99.90
2022-08-04T11:14:21.204Z,97.00
2022-08-04T11:16:31.466Z,96.10
2022-08-04T11:18:54.028Z,99.90
2022-08-04T11:21:10.725Z,94.80
2022-08-04T11:23:17.436Z,98.70
2022-08-04T11:25:25.229Z,91.70
2022-08-04T11:27:43.421Z,95.20
2022-08-04T11:30:06.100Z,91.20
2022-08-04T11:32:14.452Z,92.20
2022-08-04T11:34:21.614Z,85.80
2022-08-04T11:36:38.758Z,93.00
2022-08-04T11:39:01.956Z,83.70
2022-08-04T11:41:11.841Z,90.10
2022-08-04T11:43:56.230Z,82.90
2022-08-04T11:46:03.585Z,81.60
2022-08-04T11:48:28.744Z,93.20
2022-08-04T11:50:53.942Z,75.50
2022-08-04T11:52:58.204Z,80.50
2022-08-04T11:55:03.736Z,84.00
2022-08-04T11:57:06.271Z,79.50
2022-08-04T11:59:08.935Z,78.20
2022-08-04T12:01:22.780Z,84.70
2022-08-04T12:04:03.987Z,69.60
2022-08-04T12:06:30.595Z,68.80
2022-08-04T12:08:51.812Z,80.60
2022-08-04T12:11:21.499Z,88.20
2022-08-04T12:13:42.510Z,72.40
2022-08-04T12:16:11.570Z,74.30
2022-08-04T12:18:32.855Z,64.20
2022-08-04T12:20:48.600Z,70.50
2022-08-04T12:22:52.758Z,61.20
2022-08-04T12:24:59.859Z,59.30
2022-08-04T12:27:15.622Z,66.60
2022-08-04T12:29:20.156Z,56.90
2022-08-04T12:31:45.913Z,59.50
2022-08-04T12:34:08.363Z,55.60
2022-08-04T12:36:27.784Z,81.90
2022-08-04T12:38:33.216Z,52.70
2022-08-04T12:40:51.742Z,76.80
2022-08-04T12:43:13.034Z,65.50
2022-08-04T12:45:17.060Z,62.60
2022-08-04T12:47:29.232Z,71.60
2022-08-04T12:49:34.567Z,65.50
2022-08-04T12:52:08.041Z,53.80
2022-08-04T12:54:07.214Z,57.50
2022-08-04T12:56:14.357Z,58.80
2022-08-04T12:58:42.054Z,55.20
2022-08-04T13:00:44.160Z,64.60
2022-08-04T13:02:47.529Z,57.50
2022-08-04T13:04:51.749Z,69.40
2022-08-04T13:07:01.343Z,52.10
2022-08-04T13:09:18.561Z,60.80
2022-08-04T13:11:22.152Z,64.60
2022-08-04T13:13:28.967Z,55.40
2022-08-04T13:15:33.566Z,68.00
2022-08-04T13:18:03.049Z,54.30
2022-08-04T13:20:05.126Z,53.40
2022-08-04T13:22:07.044Z,52.20
2022-08-04T13:24:22.881Z,57.20
2022-08-04T13:26:44.795Z,53.30
2022-08-04T13:29:01.262Z,51.00
2022-08-04T13:31:20.607Z,51.90
2022-08-04T13:33:29.238Z,50.60
2022-08-04T13:35:55.717Z,51.90
2022-08-04T13:37:58.290Z,54.60
2022-08-04T13:40:02.086Z,59.80
2022-08-04T13:42:09.826Z,57.60
2022-08-04T13:44:17.362Z,48.30
2022-08-04T13:46:29.350Z,53.90
2022-08-04T13:48:37.935Z,61.30
2022-08-04T13:50:45.877Z,58.50
2022-08-04T13:52:52.753Z,49.10
2022-08-04T13:54:54.537Z,52.00
2022-08-04T13:57:00.511Z,59.20
2022-08-04T13:59:06.015Z,53.20
2022-08-04T14:01:19.469Z,66.40
2022-08-04T14:03:34.555Z,58.60
2022-08-04T14:06:13.440Z,56.90
2022-08-04T14:08:27.981Z,61.70
2022-08-04T14:10:34.805Z,56.30
2022-08-04T14:12:46.988Z,53.60
2022-08-04T14:14:53.708Z,59.10
2022-08-04T14:16:57.811Z,58.20
2022-08-04T14:19:06.196Z,54.30
2022-08-04T14:21:11.349Z,58.60
2022-08-04T14:23:13.352Z,60.70
2022-08-04T14:25:18.551Z,59.60
2022-08-04T14:27:20.437Z,63.10
2022-08-04T14:29:28.114Z,67.20
2022-08-04T14:31:33.396Z,56.40
2022-08-04T14:34:04.176Z,56.90
2022-08-04T14:36:04.084Z,59.20
2022-08-04T14:38:08.799Z,60.90
2022-08-04T14:40:30.565Z,56.70
2022-08-04T14:42:43.587Z,56.40
2022-08-04T14:44:56.697Z,55.60
2022-08-04T14:47:02.203Z,61.60
2022-08-04T14:49:09.957Z,54.70
2022-08-04T14:51:14.979Z,56.50
2022-08-04T14:53:20.185Z,65.20
2022-08-04T14:55:24.762Z,58.10
2022-08-04T14:57:27.260Z,57.00
2022-08-04T15:00:00.748Z,57.30
2022-08-04T15:02:04.630Z,56.80
2022-08-04T15:04:07.009Z,53.10
2022-08-04T15:06:15.115Z,55.60
2022-08-04T15:08:19.263Z,60.00
2022-08-04T15:10:21.118Z,63.10
2022-08-04T15:12:23.325Z,60.00
2022-08-04T15:14:37.745Z,57.40
2022-08-04T15:16:39.882Z,59.80
2022-08-04T15:18:57.649Z,56.70
2022-08-04T15:21:02.998Z,56.10
2022-08-04T15:23:10.463Z,59.10
2022-08-04T15:25:15.628Z,58.60
2022-08-04T15:27:19.807Z,54.20
2022-08-04T15:29:30.474Z,54.10
2022-08-04T15:32:06.395Z,58.70
2022-08-04T15:34:11.774Z,52.70
2022-08-04T15:36:20.669Z,53.40
2022-08-04T15:38:36.310Z,46.60
2022-08-04T15:40:37.983Z,54.00
2022-08-04T15:42:46.754Z,45.10
2022-08-04T15:44:51.490Z,50.00
2022-08-04T15:47:14.706Z,50.80
2022-08-04T15:49:24.172Z,66.10
2022-08-04T15:51:30.483Z,51.10
2022-08-04T15:54:02.550Z,53.40
2022-08-04T15:56:04.295Z,53.60
2022-08-04T15:58:11.799Z,50.70
2022-08-04T16:00:15.219Z,53.40
2022-08-04T16:02:29.465Z,52.10
2022-08-04T16:04:34.381Z,54.80
2022-08-04T16:06:36.074Z,51.20
2022-08-04T16:09:02.215Z,53.90
2022-08-04T16:11:05.004Z,55.10
2022-08-04T16:13:14.531Z,51.40
2022-08-04T16:15:42.322Z,50.90
2022-08-04T16:17:45.686Z,51.80
2022-08-04T16:20:02.703Z,55.90
2022-08-04T16:22:04.919Z,54.60
2022-08-04T16:24:18.473Z,53.50
2022-08-04T16:26:45.535Z,66.60
2022-08-04T16:28:47.902Z,58.50
2022-08-04T16:30:50.228Z,64.10
2022-08-04T16:32:54.686Z,55.90
2022-08-04T16:35:00.916Z,55.10
2022-08-04T16:37:05.567Z,69.80
2022-08-04T16:39:07.324Z,53.10
2022-08-04T16:41:09.481Z,53.50
2022-08-04T16:43:20.157Z,54.90
2022-08-04T16:45:22.186Z,52.90
2022-08-04T16:47:49.437Z,56.50
2022-08-04T16:50:02.203Z,52.80
2022-08-04T16:52:08.454Z,55.70
2022-08-04T16:54:12.531Z,54.60
2022-08-04T16:56:18.603Z,54.10
2022-08-04T16:58:32.668Z,56.40
2022-08-04T17:00:36.638Z,55.60
2022-08-04T17:02:39.011Z,61.70
2022-08-04T17:04:40.864Z,57.00
2022-08-04T17:06:44.329Z,54.10
2022-08-04T17:08:49.289Z,57.00
2022-08-04T17:10:51.283Z,63.80
2022-08-04T17:13:03.721Z,59.00
2022-08-04T17:15:32.662Z,60.50
2022-08-04T17:18:03.860Z,63.70
2022-08-04T17:19:58.892Z,59.80
2022-08-04T17:22:10.374Z,61.40
2022-08-04T17:24:13.077Z,64.60
2022-08-04T17:26:22.129Z,60.70
2022-08-04T17:28:28.666Z,68.20
2022-08-04T17:30:37.329Z,71.90
2022-08-04T17:32:40.309Z,72.10
2022-08-04T17:34:45.966Z,76.50
2022-08-04T17:36:48.366Z,71.30
2022-08-04T17:38:54.990Z,76.40
2022-08-04T17:41:00.620Z,74.30
2022-08-04T17:44:03.724Z,77.20
2022-08-04T17:45:53.858Z,75.10
2022-08-04T17:47:58.693Z,78.50
2022-08-04T17:50:11.614Z,74.80
2022-08-04T17:52:41.560Z,73.40
2022-08-04T17:54:44.459Z,76.10
2022-08-04T17:56:52.456Z,76.20
2022-08-04T17:59:55.884Z,80.70
2022-08-04T18:01:58.406Z,83.90
2022-08-04T18:04:00.174Z,85.00
2022-08-04T18:06:15.490Z,85.50
2022-08-04T18:08:40.282Z,83.00
2022-08-04T18:10:51.756Z,84.20
2022-08-04T18:12:56.234Z,86.30
2022-08-04T18:15:06.178Z,86.00
2022-08-04T18:18:03.355Z,90.10
2022-08-04T18:19:35.891Z,90.70
2022-08-04T18:24:15.620Z,91.80
2022-08-04T18:26:18.005Z,92.70
2022-08-04T18:28:26.428Z,93.10
2022-08-04T18:30:38.480Z,95.10
2022-08-04T18:33:10.463Z,95.30
2022-08-04T18:35:16.984Z,94.60
2022-08-04T18:38:06.623Z,95.70
2022-08-04T18:40:10.917Z,95.00
2022-08-04T18:42:06.449Z,95.00
2022-08-04T18:44:08.300Z,95.50
2022-08-04T18:46:14.789Z,96.80
2022-08-04T18:48:17.050Z,95.70
2022-08-04T18:50:40.009Z,97.50
2022-08-04T18:52:45.347Z,99.70
2022-08-04T18:54:51.086Z,97.70
2022-08-04T18:57:24.316Z,99.20
2022-08-04T18:59:19.650Z,99.90
2022-08-04T19:01:21.949Z,99.90
2022-08-04T19:03:33.544Z,99.90
2022-08-04T19:05:37.870Z,99.90
2022-08-04T19:08:02.239Z,99.90
2022-08-04T19:10:06.769Z,99.90
2022-08-04T19:12:28.935Z,99.90
2022-08-04T19:14:30.824Z,99.90
2022-08-04T19:16:36.023Z,99.90
2022-08-04T19:18:41.448Z,99.90
2022-08-04T19:20:46.914Z,99.90
2022-08-04T19:24:27.131Z,99.90
2022-08-04T19:28:05.738Z,99.90
2022-08-04T19:30:19.407Z,99.90
2022-08-04T19:32:27.261Z,99.90
2022-08-04T19:34:34.693Z,99.90
2022-08-04T19:36:39.983Z,99.90
2022-08-04T19:38:48.323Z,99.90
2022-08-04T19:40:52.615Z,99.90
2022-08-04T19:43:04.902Z,99.90
2022-08-04T19:45:16.850Z,99.90
2022-08-04T19:48:17.949Z,99.90
2022-08-04T19:50:05.314Z,99.90
2022-08-04T19:52:07.303Z,99.90
2022-08-04T19:54:17.165Z,99.90
2022-08-04T19:56:27.861Z,99.90
2022-08-04T19:58:47.454Z,99.90
2022-08-04T20:01:33.482Z,99.90
2022-08-04T20:04:08.890Z,99.90
2022-08-04T20:06:32.796Z,99.90
2022-08-04T20:11:20.124Z,99.90
2022-08-04T20:13:42.392Z,99.90
2022-08-04T20:16:02.657Z,99.90
2022-08-04T20:18:36.574Z,99.90
2022-08-04T20:24:38.229Z,99.90
2022-08-04T20:26:54.870Z,99.90
2022-08-04T20:29:06.303Z,99.90
2022-08-04T20:31:12.349Z,99.90
2022-08-04T20:33:21.807Z,99.90
2022-08-04T20:36:04.996Z,99.90
2022-08-04T20:38:08.573Z,99.90
2022-08-04T20:40:30.561Z,99.90
2022-08-04T20:42:34.183Z,99.90
2022-08-04T20:44:36.148Z,99.90
2022-08-04T20:46:44.131Z,99.90
2022-08-04T20:48:46.153Z,99.90
2022-08-04T20:50:49.336Z,99.90
2022-08-04T20:52:51.112Z,99.90
2022-08-04T20:54:56.216Z,99.90
2022-08-04T20:56:59.726Z,99.90
2022-08-04T20:59:01.808Z,99.90
2022-08-04T21:01:11.000Z,99.90
2022-08-04T21:03:16.293Z,99.90
2022-08-04T21:05:18.162Z,99.90
2022-08-04T21:07:22.071Z,99.90
2022-08-04T21:09:26.625Z,99.90
2022-08-04T21:11:44.687Z,99.90
2022-08-04T21:13:52.944Z,99.90
2022-08-04T21:15:59.140Z,99.90
2022-08-04T21:18:04.320Z,99.90
2022-08-04T21:20:07.113Z,99.90
2022-08-04T21:22:16.585Z,99.90
2022-08-04T21:24:31.631Z,99.90
2022-08-04T21:26:35.892Z,99.90
2022-08-04T21:28:44.790Z,99.90
2022-08-04T21:30:53.965Z,99.90
2022-08-04T21:32:56.806Z,99.90
2022-08-04T21:35:00.481Z,99.90
2022-08-04T21:37:10.046Z,99.90
2022-08-04T21:39:12.948Z,99.90
2022-08-04T21:41:24.443Z,99.90
2022-08-04T21:43:29.859Z,99.90
2022-08-04T21:45:44.652Z,99.90
2022-08-04T21:47:51.186Z,99.90
2022-08-04T21:49:56.448Z,99.90
2022-08-04T21:52:01.677Z,99.90
2022-08-04T21:54:16.869Z,99.90
2022-08-04T21:56:26.620Z,99.90
2022-08-04T21:58:29.137Z,99.90
2022-08-04T22:00:34.824Z,99.90
2022-08-04T22:02:38.630Z,99.90
2022-08-04T22:04:41.301Z,99.90
2022-08-04T22:06:47.594Z,99.90
2022-08-04T22:08:53.639Z,99.90
2022-08-04T22:10:57.908Z,99.90
2022-08-04T22:13:00.101Z,99.90
2022-08-04T22:15:24.144Z,99.90
2022-08-04T22:17:36.438Z,99.90
2022-08-04T22:19:50.054Z,99.90
2022-08-04T22:21:57.135Z,99.90
2022-08-04T22:23:59.774Z,99.90
2022-08-04T22:26:04.123Z,99.90
2022-08-04T22:28:07.997Z,99.90
2022-08-04T22:30:17.165Z,99.90
2022-08-04T22:32:19.660Z,99.90
2022-08-04T22:34:22.616Z,99.90
2022-08-04T22:36:25.993Z,99.90
2022-08-04T22:38:48.752Z,99.90
2022-08-04T22:41:00.756Z,99.90
2022-08-04T22:43:03.389Z,99.90
2022-08-04T22:45:28.939Z,99.90
2022-08-04T22:47:53.366Z,99.90
2022-08-04T22:50:13.318Z,99.90
2022-08-04T22:52:26.128Z,99.90
2022-08-04T22:54:31.923Z,99.90
2022-08-04T22:56:38.320Z,99.90
2022-08-04T22:58:45.292Z,99.90
2022-08-04T23:00:53.190Z,99.90
2022-08-04T23:02:59.922Z,99.90
2022-08-04T23:05:01.940Z,99.90
2022-08-04T23:07:05.223Z,99.90
2022-08-04T23:09:15.893Z,99.90
2022-08-04T23:11:18.404Z,99.90
2022-08-04T23:13:20.300Z,99.90
2022-08-04T23:15:22.864Z,99.90
2022-08-04T23:17:27.341Z,99.90
2022-08-04T23:19:31.941Z,99.90
2022-08-04T23:21:40.997Z,99.90
2022-08-04T23:24:01.963Z,99.90
2022-08-04T23:26:14.533Z,99.90
2022-08-04T23:28:16.292Z,99.90
2022-08-04T23:30:19.561Z,99.90
2022-08-04T23:32:24.124Z,99.90
2022-08-04T23:34:29.148Z,99.90
2022-08-04T23:36:32.573Z,99.90
2022-08-04T23:38:34.666Z,99.90
2022-08-04T23:40:50.307Z,99.90
2022-08-04T23:42:52.514Z,99.90
2022-08-04T23:44:54.830Z,99.90
2022-08-04T23:47:01.151Z,99.90
2022-08-04T23:49:03.126Z,99.90
2022-08-04T23:51:13.688Z,99.90
2022-08-04T23:53:22.487Z,99.90
2022-08-04T23:55:25.182Z,99.90
2022-08-04T23:58:05.631Z,99.90
2022-08-04T23:59:58.536Z,99.90
